Time;durP1;ratioP1;P1;durP2;ratioP2;P2;SDS_P1;SDS_P2;PMS_P1;PMS_P2;Temp;Humidity;BMP_temperature;BMP_pressure;BME280_temperature;BME280_humidity;BME280_pressure;Samples;Min_cycle;Max_cycle;Signal;HPM_P1;HPM_P2
2022/02/14 00:01:12;;;;;;;;;;;7.80;99.90;;;;;;5093257;28;19912;-73
2022/02/14 00:03:38;;;;;;;;;;;7.80;99.90;;;;;;5093132;28;19915;-73
2022/02/14 00:06:04;;;;;;;;;;;7.80;99.90;;;;;;5094580;28;20370;-73
2022/02/14 00:08:29;;;;;;;;;;;7.70;99.90;;;;;;5094582;28;19912;-74
2022/02/14 00:10:55;;;;;;;;;;;7.70;99.90;;;;;;5094472;28;19965;-73
2022/02/14 00:13:20;;;;;;;;;;;7.70;99.90;;;;;;5094505;28;20274;-75
2022/02/14 00:15:48;;;;;;;;;;;7.70;99.90;;;;;;5094385;28;19912;-74
2022/02/14 00:18:13;;;;;;;;;;;7.60;99.90;;;;;;5094493;28;19912;-73
2022/02/14 00:20:39;;;;;;;;;;;7.60;99.90;;;;;;5094428;28;19912;-73
2022/02/14 00:23:04;;;;;;;;;;;7.60;99.90;;;;;;5094378;28;19927;-73
2022/02/14 00:25:30;;;;;;;;;;;7.60;99.90;;;;;;5094341;28;19912;-75
2022/02/14 00:27:57;;;;;;;;;;;7.60;99.90;;;;;;5093104;28;19966;-74
2022/02/14 00:30:22;;;;;;;;;;;7.50;99.90;;;;;;5092933;28;19928;-72
2022/02/14 00:32:49;;;;;;;;;;;7.60;99.90;;;;;;5094342;28;19912;-74
2022/02/14 00:35:14;;;;;;;;;;;7.60;99.90;;;;;;5094297;28;20543;-74
2022/02/14 00:37:40;;;;;;;;;;;7.60;99.90;;;;;;5093144;28;19925;-73
2022/02/14 00:40:06;;;;;;;;;;;7.60;99.90;;;;;;5094282;28;20118;-73
2022/02/14 00:42:32;;;;;;;;;;;7.60;99.90;;;;;;5094460;28;19915;-74
2022/02/14 00:44:57;;;;;;;;;;;7.60;99.90;;;;;;5094346;28;20358;-73
2022/02/14 00:47:23;;;;;;;;;;;7.60;99.90;;;;;;5094220;28;19915;-74
2022/02/14 00:49:48;;;;;;;;;;;7.70;99.90;;;;;;5094188;28;19915;-74
2022/02/14 00:52:14;;;;;;;;;;;7.70;99.90;;;;;;5094114;28;19916;-73
2022/02/14 00:54:40;;;;;;;;;;;7.70;99.90;;;;;;5094136;28;19939;-74
2022/02/14 00:57:05;;;;;;;;;;;7.70;99.90;;;;;;5090442;28;19912;-73
2022/02/14 00:59:31;;;;;;;;;;;7.70;99.90;;;;;;5091097;28;19912;-73
2022/02/14 01:01:56;;;;;;;;;;;7.70;99.90;;;;;;5091015;28;19912;-74
2022/02/14 01:04:22;;;;;;;;;;;7.70;99.90;;;;;;5090906;28;19923;-73
2022/02/14 01:06:47;;;;;;;;;;;7.70;99.90;;;;;;5090686;28;19919;-73
2022/02/14 01:09:13;;;;;;;;;;;7.60;99.90;;;;;;5090718;28;19908;-73
2022/02/14 01:11:39;;;;;;;;;;;7.70;99.90;;;;;;5090684;28;19916;-73
2022/02/14 01:14:05;;;;;;;;;;;7.60;99.90;;;;;;5090749;28;19915;-72
2022/02/14 01:16:31;;;;;;;;;;;7.60;99.90;;;;;;5090674;28;19954;-73
2022/02/14 01:18:57;;;;;;;;;;;7.60;99.90;;;;;;5090672;28;19947;-72
2022/02/14 01:21:22;;;;;;;;;;;7.60;99.90;;;;;;5090633;28;20014;-74
2022/02/14 01:23:48;;;;;;;;;;;7.60;99.90;;;;;;5090514;28;19916;-73
2022/02/14 01:26:13;;;;;;;;;;;7.50;99.90;;;;;;5090343;28;19967;-73
2022/02/14 01:28:40;;;;;;;;;;;7.60;99.90;;;;;;5090376;28;20639;-73
2022/02/14 01:31:05;;;;;;;;;;;7.50;99.90;;;;;;5088930;28;19924;-74
2022/02/14 01:33:31;;;;;;;;;;;7.50;99.90;;;;;;5090398;28;19935;-72
2022/02/14 01:35:56;;;;;;;;;;;7.50;99.90;;;;;;5090263;28;19908;-73
2022/02/14 01:38:22;;;;;;;;;;;7.50;99.90;;;;;;5088927;28;19924;-73
2022/02/14 01:40:47;;;;;;;;;;;7.50;99.90;;;;;;5090175;28;20270;-73
2022/02/14 01:43:15;;;;;;;;;;;7.40;99.90;;;;;;5090121;28;19916;-73
2022/02/14 01:45:44;;;;;;;;;;;7.40;99.90;;;;;;5088642;28;20479;-73
2022/02/14 01:48:10;;;;;;;;;;;7.40;99.90;;;;;;5090357;28;19913;-73
2022/02/14 01:50:36;;;;;;;;;;;7.40;99.90;;;;;;5088592;28;19916;-72
2022/02/14 01:53:02;;;;;;;;;;;7.40;99.90;;;;;;5089888;28;20366;-73
2022/02/14 01:55:28;;;;;;;;;;;7.40;99.90;;;;;;5089882;28;20350;-73
2022/02/14 01:57:53;;;;;;;;;;;7.40;99.90;;;;;;5089880;28;19919;-74
2022/02/14 02:00:20;;;;;;;;;;;7.30;99.90;;;;;;5089798;28;20392;-73
2022/02/14 02:02:46;;;;;;;;;;;7.30;99.90;;;;;;5089736;28;19919;-73
2022/02/14 02:05:11;;;;;;;;;;;7.30;99.90;;;;;;5089682;28;19916;-73
2022/02/14 02:07:37;;;;;;;;;;;7.20;99.90;;;;;;5089447;28;20159;-73
2022/02/14 02:10:07;;;;;;;;;;;7.20;99.90;;;;;;5089630;28;19920;-73
2022/02/14 02:12:33;;;;;;;;;;;7.20;99.90;;;;;;5089557;28;19920;-73
2022/02/14 02:14:59;;;;;;;;;;;7.20;99.90;;;;;;5088139;28;20308;-73
2022/02/14 02:17:29;;;;;;;;;;;7.20;99.90;;;;;;5089641;28;19999;-74
2022/02/14 02:19:55;;;;;;;;;;;7.10;99.90;;;;;;5089439;28;19962;-73
2022/02/14 02:22:20;;;;;;;;;;;7.10;99.90;;;;;;5089392;28;19966;-74
2022/02/14 02:24:47;;;;;;;;;;;7.10;99.90;;;;;;5089379;28;19949;-73
2022/02/14 02:27:13;;;;;;;;;;;7.10;99.90;;;;;;5089177;28;19909;-74
2022/02/14 02:29:39;;;;;;;;;;;7.00;99.90;;;;;;5087736;28;20362;-72
2022/02/14 02:32:06;;;;;;;;;;;7.00;99.90;;;;;;5089220;28;19917;-73
2022/02/14 02:34:31;;;;;;;;;;;7.10;99.90;;;;;;5089258;28;19993;-73
2022/02/14 02:36:58;;;;;;;;;;;7.10;99.90;;;;;;5088987;28;19908;-73
2022/02/14 02:39:24;;;;;;;;;;;7.10;99.90;;;;;;5089145;28;19935;-73
2022/02/14 02:41:50;;;;;;;;;;;7.10;99.90;;;;;;5089077;28;20350;-74
2022/02/14 02:44:16;;;;;;;;;;;7.20;99.90;;;;;;5088989;28;19966;-73
2022/02/14 02:46:41;;;;;;;;;;;7.20;99.90;;;;;;5088852;28;19915;-73
2022/02/14 02:49:27;;;;;;;;;;;7.20;99.90;;;;;;5088984;28;19919;-74
2022/02/14 02:51:54;;;;;;;;;;;7.20;99.90;;;;;;5088449;28;19919;-74
2022/02/14 02:54:21;;;;;;;;;;;7.20;99.90;;;;;;5088818;28;19912;-72
2022/02/14 02:56:48;;;;;;;;;;;7.30;99.90;;;;;;5088697;28;19908;-73
2022/02/14 02:59:13;;;;;;;;;;;7.20;99.90;;;;;;5088777;28;19912;-73
2022/02/14 03:01:40;;;;;;;;;;;7.20;99.90;;;;;;5088776;28;20479;-73
2022/02/14 03:04:06;;;;;;;;;;;7.20;99.90;;;;;;5088653;28;19951;-73
2022/02/14 03:06:32;;;;;;;;;;;7.20;99.90;;;;;;5088547;28;19924;-73
2022/02/14 03:08:57;;;;;;;;;;;7.20;99.90;;;;;;5088592;28;19919;-73
2022/02/14 03:11:23;;;;;;;;;;;7.20;99.90;;;;;;5088545;28;20011;-73
2022/02/14 03:13:49;;;;;;;;;;;7.20;99.90;;;;;;5088445;28;19911;-72
2022/02/14 03:16:15;;;;;;;;;;;7.20;99.90;;;;;;5086979;28;19912;-73
2022/02/14 03:18:40;;;;;;;;;;;7.20;99.90;;;;;;5088323;28;20370;-73
2022/02/14 03:21:06;;;;;;;;;;;7.20;99.90;;;;;;5088080;28;19908;-73
2022/02/14 03:23:32;;;;;;;;;;;7.20;99.90;;;;;;5088534;28;20002;-72
2022/02/14 03:25:58;;;;;;;;;;;7.20;99.90;;;;;;5086965;28;19919;-72
2022/02/14 03:28:23;;;;;;;;;;;7.20;99.90;;;;;;5088335;28;20449;-72
2022/02/14 03:30:49;;;;;;;;;;;7.30;99.90;;;;;;5088038;28;19930;-73
2022/02/14 03:33:15;;;;;;;;;;;7.30;99.90;;;;;;5088208;28;19908;-72
2022/02/14 03:35:40;;;;;;;;;;;7.30;99.90;;;;;;5088098;28;19912;-73
2022/02/14 03:38:07;;;;;;;;;;;7.30;99.90;;;;;;5088230;28;19908;-73
2022/02/14 03:40:36;;;;;;;;;;;7.30;99.90;;;;;;5086986;28;20011;-73
2022/02/14 03:43:02;;;;;;;;;;;7.30;99.90;;;;;;5088221;28;20016;-73
2022/02/14 03:45:28;;;;;;;;;;;7.30;99.90;;;;;;5088066;28;20294;-72
2022/02/14 03:47:54;;;;;;;;;;;7.30;99.90;;;;;;5087026;28;19908;-73
2022/02/14 03:50:19;;;;;;;;;;;7.30;99.90;;;;;;5088016;28;19955;-72
2022/02/14 03:52:45;;;;;;;;;;;7.30;99.90;;;;;;5087962;28;19947;-73
2022/02/14 03:55:11;;;;;;;;;;;7.30;99.90;;;;;;5087869;28;20019;-73
2022/02/14 03:57:37;;;;;;;;;;;7.30;99.90;;;;;;5087984;28;19912;-73
2022/02/14 04:00:04;;;;;;;;;;;7.30;99.90;;;;;;5088108;28;20251;-73
2022/02/14 04:02:30;;;;;;;;;;;7.30;99.90;;;;;;5087899;28;19943;-73
2022/02/14 04:04:55;;;;;;;;;;;7.30;99.90;;;;;;5087960;28;19986;-74
2022/02/14 04:07:21;;;;;;;;;;;7.30;99.90;;;;;;5087888;28;19966;-73
2022/02/14 04:09:47;;;;;;;;;;;7.30;99.90;;;;;;5087937;28;19909;-73
2022/02/14 04:12:12;;;;;;;;;;;7.20;99.90;;;;;;5087853;28;19912;-73
2022/02/14 04:14:39;;;;;;;;;;;7.20;99.90;;;;;;5087857;28;19908;-74
2022/02/14 04:17:04;;;;;;;;;;;7.20;99.90;;;;;;5086326;28;19923;-72
2022/02/14 04:19:30;;;;;;;;;;;7.20;99.90;;;;;;5086546;28;20286;-74
2022/02/14 04:21:55;;;;;;;;;;;7.20;99.90;;;;;;5087842;28;19916;-73
2022/02/14 04:24:21;;;;;;;;;;;7.20;99.90;;;;;;5087836;28;20267;-74
2022/02/14 04:26:46;;;;;;;;;;;7.20;99.90;;;;;;5087761;28;20334;-73
2022/02/14 04:29:12;;;;;;;;;;;7.20;99.90;;;;;;5087745;28;19934;-74
2022/02/14 04:31:37;;;;;;;;;;;7.20;99.90;;;;;;5088311;28;19973;-73
2022/02/14 04:34:03;;;;;;;;;;;7.20;99.90;;;;;;5091420;28;19913;-73
2022/02/14 04:36:29;;;;;;;;;;;7.20;99.90;;;;;;5091417;28;19912;-73
2022/02/14 04:38:54;;;;;;;;;;;7.20;99.90;;;;;;5091466;28;20414;-73
2022/02/14 04:41:20;;;;;;;;;;;7.20;99.90;;;;;;5091528;28;19971;-73
2022/02/14 04:43:45;;;;;;;;;;;7.20;99.90;;;;;;5091427;28;19909;-73
2022/02/14 04:46:11;;;;;;;;;;;7.20;99.90;;;;;;5091319;28;19916;-72
2022/02/14 04:48:36;;;;;;;;;;;7.20;99.90;;;;;;5091121;28;19908;-73
2022/02/14 04:51:03;;;;;;;;;;;7.20;99.90;;;;;;5091201;28;20348;-73
2022/02/14 04:53:28;;;;;;;;;;;7.20;99.90;;;;;;5091228;28;19955;-73
2022/02/14 04:55:54;;;;;;;;;;;7.20;99.90;;;;;;5091203;28;19947;-72
2022/02/14 04:58:19;;;;;;;;;;;7.20;99.90;;;;;;5091017;28;19969;-73
2022/02/14 05:00:45;;;;;;;;;;;7.20;99.90;;;;;;5090891;28;20414;-73
2022/02/14 05:03:11;;;;;;;;;;;7.10;99.90;;;;;;5089543;28;19913;-73
2022/02/14 05:05:36;;;;;;;;;;;7.10;99.90;;;;;;5090829;28;20328;-73
2022/02/14 05:08:02;;;;;;;;;;;7.10;99.90;;;;;;5090946;28;19916;-73
2022/02/14 05:10:28;;;;;;;;;;;7.00;99.90;;;;;;5090835;28;19916;-74
2022/02/14 05:12:53;;;;;;;;;;;7.00;99.90;;;;;;5089649;28;19913;-74
2022/02/14 05:15:19;;;;;;;;;;;6.90;99.90;;;;;;5090644;28;20274;-73
2022/02/14 05:17:44;;;;;;;;;;;6.90;99.90;;;;;;5090724;28;20184;-74
2022/02/14 05:20:10;;;;;;;;;;;6.80;99.90;;;;;;5089284;28;20006;-73
2022/02/14 05:22:35;;;;;;;;;;;6.90;99.90;;;;;;5090591;28;19912;-72
2022/02/14 05:25:01;;;;;;;;;;;6.90;99.90;;;;;;5090502;28;19920;-74
2022/02/14 05:27:27;;;;;;;;;;;6.90;99.90;;;;;;5090509;28;19912;-73
2022/02/14 05:29:52;;;;;;;;;;;6.90;99.90;;;;;;5090242;28;20061;-72
2022/02/14 05:32:20;;;;;;;;;;;6.90;99.90;;;;;;5089663;28;21433;-73
2022/02/14 05:34:45;;;;;;;;;;;6.90;99.90;;;;;;5090350;28;19932;-74
2022/02/14 05:37:11;;;;;;;;;;;6.80;99.90;;;;;;5090293;28;20003;-73
2022/02/14 05:39:37;;;;;;;;;;;6.80;99.90;;;;;;5090308;28;19938;-74
2022/02/14 05:42:03;;;;;;;;;;;6.70;99.90;;;;;;5089773;28;19912;-72
2022/02/14 05:44:28;;;;;;;;;;;6.70;99.90;;;;;;5090012;28;20417;-73
2022/02/14 05:46:54;;;;;;;;;;;6.60;99.90;;;;;;5090093;28;19919;-73
2022/02/14 05:49:19;;;;;;;;;;;6.60;99.90;;;;;;5088688;28;19915;-72
2022/02/14 05:51:45;;;;;;;;;;;6.60;99.90;;;;;;5089853;28;19917;-73
2022/02/14 05:54:11;;;;;;;;;;;6.60;99.90;;;;;;5089925;28;19919;-72
2022/02/14 05:56:36;;;;;;;;;;;6.60;99.90;;;;;;5089760;28;19907;-74
2022/02/14 05:59:02;;;;;;;;;;;6.60;99.90;;;;;;5089889;28;19923;-73
2022/02/14 06:01:27;;;;;;;;;;;6.60;99.90;;;;;;5088553;28;19918;-74
2022/02/14 06:03:53;;;;;;;;;;;6.70;99.90;;;;;;5089737;28;19912;-73
2022/02/14 06:06:19;;;;;;;;;;;6.70;99.90;;;;;;5089661;28;19912;-73
2022/02/14 06:08:44;;;;;;;;;;;6.80;99.90;;;;;;5088373;28;19915;-74
2022/02/14 06:11:10;;;;;;;;;;;6.80;99.90;;;;;;5089582;28;19916;-73
2022/02/14 06:13:36;;;;;;;;;;;6.90;99.90;;;;;;5089470;28;19966;-73
2022/02/14 06:16:01;;;;;;;;;;;6.90;99.90;;;;;;5089293;28;19919;-73
2022/02/14 06:18:27;;;;;;;;;;;6.90;99.90;;;;;;5089367;28;19934;-74
2022/02/14 06:20:53;;;;;;;;;;;6.90;99.90;;;;;;5089342;28;20362;-74
2022/02/14 06:23:19;;;;;;;;;;;7.00;99.90;;;;;;5089441;28;19919;-73
2022/02/14 06:25:44;;;;;;;;;;;7.00;99.90;;;;;;5089227;28;19966;-73
2022/02/14 06:28:10;;;;;;;;;;;7.00;99.90;;;;;;5089381;28;19908;-73
2022/02/14 06:30:36;;;;;;;;;;;7.00;99.90;;;;;;5087548;28;20382;-73
2022/02/14 06:33:02;;;;;;;;;;;7.00;99.90;;;;;;5089133;28;19916;-73
2022/02/14 06:35:27;;;;;;;;;;;7.10;99.90;;;;;;5089023;28;19908;-73
2022/02/14 06:37:53;;;;;;;;;;;7.10;99.90;;;;;;5089201;28;19915;-73
2022/02/14 06:40:18;;;;;;;;;;;7.10;99.90;;;;;;5089045;28;19912;-73
2022/02/14 06:42:49;;;;;;;;;;;7.20;99.90;;;;;;5089019;28;19916;-72
2022/02/14 06:45:16;;;;;;;;;;;7.20;99.90;;;;;;5087475;28;19938;-73
2022/02/14 06:47:42;;;;;;;;;;;7.20;99.90;;;;;;5088173;28;20385;-73
2022/02/14 06:50:08;;;;;;;;;;;7.30;99.90;;;;;;5088787;28;19912;-73
2022/02/14 06:52:34;;;;;;;;;;;7.30;99.90;;;;;;5089116;28;19919;-72
2022/02/14 06:54:59;;;;;;;;;;;7.30;99.90;;;;;;5087832;28;19920;-74
2022/02/14 06:57:25;;;;;;;;;;;7.40;99.90;;;;;;5088568;28;20355;-73
2022/02/14 06:59:51;;;;;;;;;;;7.40;99.90;;;;;;5088651;28;19930;-73
2022/02/14 07:02:16;;;;;;;;;;;7.40;99.90;;;;;;5087299;28;19916;-73
2022/02/14 07:04:42;;;;;;;;;;;7.50;99.90;;;;;;5088524;28;19923;-73
2022/02/14 07:07:07;;;;;;;;;;;7.50;99.90;;;;;;5088444;28;20012;-73
2022/02/14 07:09:33;;;;;;;;;;;7.50;99.90;;;;;;5087041;28;19920;-73
2022/02/14 07:11:58;;;;;;;;;;;7.60;99.90;;;;;;5088152;28;19912;-73
2022/02/14 07:14:24;;;;;;;;;;;7.60;99.90;;;;;;5088167;28;19922;-72
2022/02/14 07:16:50;;;;;;;;;;;7.60;99.90;;;;;;5086598;28;19929;-72
2022/02/14 07:19:16;;;;;;;;;;;7.50;99.90;;;;;;5086604;28;20355;-73
2022/02/14 07:21:41;;;;;;;;;;;7.50;99.90;;;;;;5088205;28;19916;-73
2022/02/14 07:24:08;;;;;;;;;;;7.40;99.90;;;;;;5086924;28;20009;-72
2022/02/14 07:26:34;;;;;;;;;;;7.40;99.90;;;;;;5088141;28;19908;-73
2022/02/14 07:28:59;;;;;;;;;;;7.40;99.90;;;;;;5088150;28;20281;-73
2022/02/14 07:31:25;;;;;;;;;;;7.40;99.90;;;;;;5087807;28;19924;-74
2022/02/14 07:33:51;;;;;;;;;;;7.30;99.90;;;;;;5088730;28;20286;-72
2022/02/14 07:36:16;;;;;;;;;;;7.30;99.90;;;;;;5089523;28;19912;-73
2022/02/14 07:38:42;;;;;;;;;;;7.30;99.90;;;;;;5088460;28;19916;-73
2022/02/14 07:41:07;;;;;;;;;;;7.30;99.90;;;;;;5087933;28;19966;-73
2022/02/14 07:43:33;;;;;;;;;;;7.20;99.90;;;;;;5087576;28;19916;-72
2022/02/14 07:45:59;;;;;;;;;;;7.20;99.90;;;;;;5087654;28;19908;-73
2022/02/14 07:48:24;;;;;;;;;;;7.20;99.90;;;;;;5087903;28;19954;-73
2022/02/14 07:50:50;;;;;;;;;;;7.10;99.90;;;;;;5087650;28;19924;-74
2022/02/14 07:53:18;;;;;;;;;;;7.10;99.90;;;;;;5087828;28;19921;-73
2022/02/14 07:55:43;;;;;;;;;;;7.20;99.90;;;;;;5087455;28;20263;-73
2022/02/14 07:58:09;;;;;;;;;;;7.20;99.90;;;;;;5087653;28;19908;-72
2022/02/14 08:00:36;;;;;;;;;;;7.20;99.90;;;;;;5087860;28;19912;-73
2022/02/14 08:03:01;;;;;;;;;;;7.10;99.90;;;;;;5087861;28;20347;-73
2022/02/14 08:05:27;;;;;;;;;;;7.00;99.90;;;;;;5086793;28;19912;-72
2022/02/14 08:07:52;;;;;;;;;;;6.90;99.90;;;;;;5091759;28;20401;-73
2022/02/14 08:10:18;;;;;;;;;;;6.80;99.90;;;;;;5091651;28;19938;-72
2022/02/14 08:12:44;;;;;;;;;;;6.80;99.90;;;;;;5090203;28;19908;-73
2022/02/14 08:15:09;;;;;;;;;;;6.70;99.90;;;;;;5091549;28;19916;-73
2022/02/14 08:17:35;;;;;;;;;;;6.70;99.90;;;;;;5091667;28;19916;-72
2022/02/14 08:20:01;;;;;;;;;;;6.70;99.90;;;;;;5091789;28;19914;-73
2022/02/14 08:22:30;;;;;;;;;;;6.60;99.90;;;;;;5089913;28;19916;-73
2022/02/14 08:24:57;;;;;;;;;;;6.60;99.90;;;;;;5091494;28;19920;-73
2022/02/14 08:27:24;;;;;;;;;;;6.60;99.90;;;;;;5091346;28;20422;-73
2022/02/14 08:29:50;;;;;;;;;;;6.50;99.90;;;;;;5090763;28;19959;-74
2022/02/14 08:32:16;;;;;;;;;;;6.60;99.90;;;;;;5090494;28;19923;-74
2022/02/14 08:34:42;;;;;;;;;;;6.60;99.90;;;;;;5089730;28;19916;-74
2022/02/14 08:37:14;;;;;;;;;;;6.60;99.90;;;;;;5091237;28;19908;-73
2022/02/14 08:39:40;;;;;;;;;;;6.60;99.90;;;;;;5090962;28;19966;-73
2022/02/14 08:42:06;;;;;;;;;;;6.50;99.90;;;;;;5089538;28;20338;-73
2022/02/14 08:44:31;;;;;;;;;;;6.50;99.90;;;;;;5090753;28;20265;-73
2022/02/14 08:46:59;;;;;;;;;;;6.50;99.90;;;;;;5089183;28;19912;-73
2022/02/14 08:49:25;;;;;;;;;;;6.60;99.90;;;;;;5090888;28;19923;-73
2022/02/14 08:51:51;;;;;;;;;;;6.60;99.90;;;;;;5090622;28;19919;-73
2022/02/14 08:54:16;;;;;;;;;;;6.60;99.90;;;;;;5090285;28;19927;-74
2022/02/14 08:56:42;;;;;;;;;;;6.70;99.90;;;;;;5091127;28;19908;-73
2022/02/14 08:59:07;;;;;;;;;;;6.90;99.90;;;;;;5091497;28;20007;-74
2022/02/14 09:01:33;;;;;;;;;;;7.20;99.90;;;;;;5091153;28;19958;-72
2022/02/14 09:03:59;;;;;;;;;;;7.40;99.90;;;;;;5090640;28;20446;-72
2022/02/14 09:06:27;;;;;;;;;;;7.70;99.90;;;;;;5091136;28;19923;-73
2022/02/14 09:08:53;;;;;;;;;;;8.20;99.90;;;;;;5090640;28;19916;-74
2022/02/14 09:11:19;;;;;;;;;;;8.70;99.90;;;;;;5090657;28;19963;-74
2022/02/14 09:13:45;;;;;;;;;;;9.20;99.90;;;;;;5090622;28;19955;-73
2022/02/14 09:16:11;;;;;;;;;;;10.00;99.90;;;;;;5091011;28;19916;-74
2022/02/14 09:18:37;;;;;;;;;;;10.50;99.90;;;;;;5089978;28;19969;-74
2022/02/14 09:21:03;;;;;;;;;;;10.60;99.90;;;;;;5087886;28;19912;-74
2022/02/14 09:23:29;;;;;;;;;;;10.60;99.90;;;;;;5079575;28;19916;-73
2022/02/14 09:25:55;;;;;;;;;;;10.40;99.90;;;;;;5080981;28;19908;-72
2022/02/14 09:28:21;;;;;;;;;;;10.10;99.90;;;;;;5079933;28;19938;-73
2022/02/14 09:30:47;;;;;;;;;;;9.90;99.90;;;;;;5082283;28;19924;-73
2022/02/14 09:33:12;;;;;;;;;;;9.70;99.90;;;;;;5081393;28;20335;-73
2022/02/14 09:35:38;;;;;;;;;;;9.60;99.90;;;;;;5080211;28;20305;-74
2022/02/14 09:38:04;;;;;;;;;;;9.40;99.90;;;;;;5080094;28;20412;-73
2022/02/14 09:40:30;;;;;;;;;;;9.40;99.90;;;;;;5081195;28;19930;-73
2022/02/14 09:42:57;;;;;;;;;;;9.30;99.90;;;;;;5076987;28;20333;-75
2022/02/14 09:45:24;;;;;;;;;;;9.20;99.90;;;;;;5074081;28;20002;-73
2022/02/14 09:48:03;;;;;;;;;;;9.20;99.90;;;;;;5070840;28;19915;-72
2022/02/14 09:50:30;;;;;;;;;;;9.20;99.90;;;;;;5079509;28;19923;-74
2022/02/14 09:52:56;;;;;;;;;;;9.10;99.90;;;;;;5077514;28;19923;-74
2022/02/14 09:55:21;;;;;;;;;;;9.20;99.90;;;;;;5078374;28;19916;-73
2022/02/14 09:57:47;;;;;;;;;;;9.20;99.90;;;;;;5081802;28;19912;-74
2022/02/14 10:00:13;;;;;;;;;;;9.20;99.90;;;;;;5062119;28;20015;-73
2022/02/14 10:02:39;;;;;;;;;;;9.20;99.90;;;;;;5077948;28;19919;-73
2022/02/14 10:05:09;;;;;;;;;;;9.10;99.90;;;;;;5077559;28;19912;-74
2022/02/14 10:07:45;;;;;;;;;;;9.10;99.90;;;;;;5079962;28;20353;-73
2022/02/14 10:10:11;;;;;;;;;;;9.00;99.90;;;;;;5077262;28;20335;-68
2022/02/14 10:12:41;;;;;;;;;;;9.10;99.90;;;;;;5079301;28;19918;-75
2022/02/14 10:15:07;;;;;;;;;;;9.10;99.90;;;;;;5082978;28;19919;-75
2022/02/14 10:17:40;;;;;;;;;;;9.10;99.90;;;;;;5089255;28;20344;-74
2022/02/14 10:20:06;;;;;;;;;;;9.10;99.90;;;;;;5088092;28;19908;-75
2022/02/14 10:22:31;;;;;;;;;;;9.20;99.90;;;;;;5087815;28;20441;-75
2022/02/14 10:24:57;;;;;;;;;;;9.30;99.90;;;;;;5088130;28;20006;-73
2022/02/14 10:27:30;;;;;;;;;;;9.50;99.90;;;;;;5089245;28;19916;-74
2022/02/14 10:30:05;;;;;;;;;;;9.80;99.90;;;;;;5080487;28;20432;-74
2022/02/14 10:32:31;;;;;;;;;;;10.70;99.90;;;;;;5088469;28;19926;-75
2022/02/14 10:34:56;;;;;;;;;;;12.00;99.90;;;;;;5087489;28;19991;-76
2022/02/14 10:37:38;;;;;;;;;;;13.10;99.90;;;;;;5088150;28;19932;-73
2022/02/14 10:40:04;;;;;;;;;;;14.10;99.90;;;;;;5087602;28;19999;-74
2022/02/14 10:42:34;;;;;;;;;;;14.90;99.90;;;;;;5087328;28;19912;-75
2022/02/14 10:45:10;;;;;;;;;;;15.00;99.40;;;;;;5089030;28;19956;-74
2022/02/14 10:47:37;;;;;;;;;;;15.20;98.00;;;;;;5086086;28;19923;-73
2022/02/14 10:50:09;;;;;;;;;;;15.00;97.10;;;;;;5088364;28;19938;-75
2022/02/14 10:52:37;;;;;;;;;;;14.70;97.20;;;;;;5088173;28;19935;-74
2022/02/14 10:55:04;;;;;;;;;;;14.30;97.30;;;;;;5087786;28;19919;-73
2022/02/14 10:57:31;;;;;;;;;;;13.90;97.00;;;;;;5085852;28;19908;-73
2022/02/14 10:59:58;;;;;;;;;;;13.40;96.80;;;;;;5087690;28;20350;-73
2022/02/14 11:02:23;;;;;;;;;;;13.20;97.40;;;;;;5087210;28;19912;-72
2022/02/14 11:04:50;;;;;;;;;;;13.40;96.80;;;;;;5088048;28;19929;-73
2022/02/14 11:07:16;;;;;;;;;;;13.30;96.70;;;;;;5088056;28;19936;-75
2022/02/14 11:09:45;;;;;;;;;;;13.10;96.10;;;;;;5087757;28;19908;-74
2022/02/14 11:12:12;;;;;;;;;;;13.50;96.40;;;;;;5088553;28;19912;-74
2022/02/14 11:14:40;;;;;;;;;;;13.80;95.70;;;;;;5086775;28;19908;-75
2022/02/14 11:17:07;;;;;;;;;;;14.00;94.70;;;;;;5088946;28;19908;-72
2022/02/14 11:19:34;;;;;;;;;;;13.80;94.10;;;;;;5089232;28;20451;-73
2022/02/14 11:22:03;;;;;;;;;;;13.60;94.00;;;;;;5089123;28;19914;-74
2022/02/14 11:24:30;;;;;;;;;;;13.50;94.40;;;;;;5089243;28;19912;-75
2022/02/14 11:26:59;;;;;;;;;;;13.60;94.20;;;;;;5088986;28;20004;-74
2022/02/14 11:29:52;;;;;;;;;;;13.90;94.50;;;;;;5087570;28;19908;-75
2022/02/14 11:32:22;;;;;;;;;;;14.50;94.20;;;;;;5085571;28;19920;-75
2022/02/14 11:34:52;;;;;;;;;;;15.10;93.90;;;;;;5089580;28;19912;-74
2022/02/14 11:37:17;;;;;;;;;;;15.50;93.10;;;;;;5088614;28;19999;-74
2022/02/14 11:39:43;;;;;;;;;;;15.40;91.20;;;;;;5087225;28;20003;-73
2022/02/14 11:42:09;;;;;;;;;;;14.90;90.90;;;;;;5088469;28;19912;-72
2022/02/14 11:44:34;;;;;;;;;;;14.40;91.10;;;;;;5088657;28;19938;-71
2022/02/14 11:47:02;;;;;;;;;;;14.00;91.10;;;;;;5088503;28;20366;-73
2022/02/14 11:49:27;;;;;;;;;;;13.70;90.80;;;;;;5088782;28;19998;-75
2022/02/14 11:51:54;;;;;;;;;;;13.20;90.60;;;;;;5088492;28;20017;-74
2022/02/14 11:54:29;;;;;;;;;;;12.70;91.10;;;;;;5088129;28;19913;-72
2022/02/14 11:57:14;;;;;;;;;;;12.40;91.40;;;;;;5086915;28;20282;-72
2022/02/14 11:59:40;;;;;;;;;;;12.20;91.50;;;;;;5088464;28;19912;-74
2022/02/14 12:02:06;;;;;;;;;;;12.00;91.60;;;;;;5086878;28;19918;-76
2022/02/14 12:04:38;;;;;;;;;;;12.10;92.60;;;;;;5087180;28;19916;-72
2022/02/14 12:07:23;;;;;;;;;;;12.70;93.40;;;;;;5081421;28;19908;-73
2022/02/14 12:09:57;;;;;;;;;;;13.60;94.20;;;;;;5085911;28;19916;-75
2022/02/14 12:12:38;;;;;;;;;;;14.60;94.20;;;;;;5087557;28;19919;-74
2022/02/14 12:20:52;;;;;;;;;;;15.90;91.90;;;;;;5084108;28;19915;-74
2022/02/14 12:23:40;;;;;;;;;;;16.00;92.20;;;;;;5087748;28;19916;-73
2022/02/14 12:26:08;;;;;;;;;;;16.10;91.50;;;;;;5084061;28;19908;-74
2022/02/14 12:28:35;;;;;;;;;;;16.10;90.30;;;;;;5087854;28;19916;-73
2022/02/14 12:31:00;;;;;;;;;;;16.20;88.00;;;;;;5087780;28;19924;-73
2022/02/14 12:33:26;;;;;;;;;;;16.40;88.20;;;;;;5088192;28;19977;-74
2022/02/14 12:35:53;;;;;;;;;;;16.50;85.40;;;;;;5087946;28;19917;-74
2022/02/14 12:38:19;;;;;;;;;;;16.30;84.40;;;;;;5087636;28;20242;-76
2022/02/14 12:40:45;;;;;;;;;;;16.00;81.40;;;;;;5088136;28;20007;-75
2022/02/14 12:43:10;;;;;;;;;;;15.50;82.50;;;;;;5088654;28;20270;-75
2022/02/14 12:45:36;;;;;;;;;;;15.10;83.70;;;;;;5087934;28;19920;-74
2022/02/14 12:48:02;;;;;;;;;;;14.70;82.40;;;;;;5067451;28;19932;-76
2022/02/14 12:50:34;;;;;;;;;;;14.60;82.60;;;;;;5087880;28;20003;-73
2022/02/14 12:53:07;;;;;;;;;;;14.60;82.00;;;;;;5089211;28;19916;-73
2022/02/14 12:55:33;;;;;;;;;;;14.40;80.30;;;;;;5090338;28;20484;-75
2022/02/14 12:57:58;;;;;;;;;;;14.20;79.80;;;;;;5091613;28;19912;-75
2022/02/14 13:00:42;;;;;;;;;;;14.10;79.90;;;;;;5091254;28;20260;-74
2022/02/14 13:03:15;;;;;;;;;;;14.30;81.90;;;;;;5089154;28;19908;-68
2022/02/14 13:05:47;;;;;;;;;;;14.70;83.40;;;;;;5091047;28;20030;-73
2022/02/14 13:08:17;;;;;;;;;;;15.00;82.60;;;;;;5091141;28;19918;-73
2022/02/14 13:10:44;;;;;;;;;;;15.00;81.80;;;;;;5088347;28;19991;-74
2022/02/14 13:13:09;;;;;;;;;;;15.30;83.20;;;;;;5089786;28;19920;-73
2022/02/14 13:15:42;;;;;;;;;;;15.70;84.00;;;;;;5090948;28;19947;-72
2022/02/14 13:18:08;;;;;;;;;;;16.00;83.00;;;;;;5088295;28;19912;-73
2022/02/14 13:20:35;;;;;;;;;;;16.30;81.40;;;;;;5090555;28;19966;-74
2022/02/14 13:23:00;;;;;;;;;;;16.50;80.80;;;;;;5088577;28;20603;-73
2022/02/14 13:25:26;;;;;;;;;;;16.70;80.20;;;;;;5089488;28;19916;-73
2022/02/14 13:27:53;;;;;;;;;;;16.80;79.20;;;;;;5088713;28;19916;-74
2022/02/14 13:30:21;;;;;;;;;;;16.90;78.00;;;;;;5090267;28;19939;-75
2022/02/14 13:32:47;;;;;;;;;;;16.80;77.60;;;;;;5089878;28;19920;-76
2022/02/14 13:35:16;;;;;;;;;;;16.60;77.60;;;;;;5089332;28;19912;-73
2022/02/14 13:37:43;;;;;;;;;;;16.40;76.80;;;;;;5090368;28;19966;-73
2022/02/14 13:40:21;;;;;;;;;;;16.10;75.20;;;;;;5090427;28;19919;-73
2022/02/14 13:42:46;;;;;;;;;;;15.70;75.00;;;;;;5091033;28;19908;-72
2022/02/14 13:45:12;;;;;;;;;;;15.10;74.40;;;;;;5090864;28;20316;-75
2022/02/14 13:47:38;;;;;;;;;;;14.60;75.20;;;;;;5090329;28;20199;-74
2022/02/14 13:50:19;;;;;;;;;;;14.40;75.40;;;;;;5090333;28;19922;-72
2022/02/14 13:52:45;;;;;;;;;;;14.10;74.90;;;;;;5090296;28;20015;-72
2022/02/14 13:55:16;;;;;;;;;;;13.80;76.00;;;;;;5088979;28;20015;-73
2022/02/14 13:57:44;;;;;;;;;;;13.60;76.60;;;;;;5090174;28;19918;-73
2022/02/14 14:00:28;;;;;;;;;;;13.60;76.90;;;;;;5090157;28;20413;-73
2022/02/14 14:02:59;;;;;;;;;;;13.50;77.20;;;;;;5089784;28;19914;-73
2022/02/14 14:05:25;;;;;;;;;;;13.50;77.20;;;;;;5088069;28;19962;-75
2022/02/14 14:07:50;;;;;;;;;;;13.40;76.90;;;;;;5089637;28;20358;-74
2022/02/14 14:10:18;;;;;;;;;;;13.10;76.60;;;;;;5089949;28;19919;-74
2022/02/14 14:12:51;;;;;;;;;;;13.10;77.20;;;;;;5088952;28;19970;-74
2022/02/14 14:15:17;;;;;;;;;;;13.10;77.40;;;;;;5089384;28;20030;-74
2022/02/14 14:17:43;;;;;;;;;;;13.10;76.90;;;;;;5088021;28;20385;-73
2022/02/14 14:20:09;;;;;;;;;;;13.10;76.20;;;;;;5089232;28;19931;-74
2022/02/14 14:22:36;;;;;;;;;;;13.10;76.70;;;;;;5089388;28;19940;-72
2022/02/14 14:25:03;;;;;;;;;;;12.90;76.00;;;;;;5089890;28;19922;-73
2022/02/14 14:27:30;;;;;;;;;;;12.60;75.80;;;;;;5089966;28;19956;-72
2022/02/14 14:29:55;;;;;;;;;;;12.20;74.70;;;;;;5088553;28;19965;-74